首页
METAR-TAF:

METAR-TAF

机场 :

曼塔, 厄瓜多尔

纬度: 00-57S, 经度: 080-41W, 海拔: 13米

当前天气观测

该预报发布于47分钟前的01:00 UTC
风速8节,风向
温度 26°C
湿度 79%
气压 1009 hPa
能见度10公里或以上
散云层高于2300英尺

METAR: SEMT 250100Z 18008KT 9999 SCT023 26/22 Q1009 RMK A2982

时间: 20:47 (01:47 UTC)

预报

该预报发布于2小时和57分钟前的22:50 UTC
预报有效从25日的 00点(UTC)到 25日的 24点(UTC)
风速8节,风向南转西南
能见度10公里或以上
散云层高于2300英尺
散云层高于10000英尺
成为
从 25日的 02点(UTC)到 25日的 04点(UTC)
多云层高于2000英尺
成为
从 25日的 12点(UTC)到 25日的 14点(UTC)
散云层高于2300英尺
散云层高于10000英尺
成为
从 25日的 16点(UTC)到 25日的 17点(UTC)
风速9节,风向西转西北
成为
从 25日的 22点(UTC)到 25日的 23点(UTC)
风速8节,风向南转西南

TAF: SEMT 242250Z 2500/2524 20008KT 9999 SCT023 SCT100 BECMG 2502/2504 BKN020 BECMG 2512/2514 SCT023 SCT100 BECMG 2516/2517 29009KT BECMG 2522/2523 21008KT TX31/2520Z TN24/2510Z

超过4000个机场的气象观测和天气预报(METAR&TAF报告)。

可查询的气象台以黄色和红色小点在地图上表示。

将鼠标移到小点上方,可查看气象台名称。

然后点击查看天气观测和预报。

如需切换地图:点击带黑十字的绿色按钮放大地图;点击带横线的绿色按钮缩小地图;或者点击绿色箭头查看邻近地区的地图。


METAR-TAF: